createdAt,value
2018-02-20T00:01:43.154Z,85.70
2018-02-20T00:04:10.719Z,85.95
2018-02-20T00:06:38.277Z,85.96
2018-02-20T00:09:05.846Z,85.33
2018-02-20T00:11:33.438Z,85.40
2018-02-20T00:14:01.027Z,85.67
2018-02-20T00:16:28.621Z,85.66
2018-02-20T00:18:56.182Z,85.74
2018-02-20T00:21:23.754Z,85.93
2018-02-20T00:23:51.335Z,86.27
2018-02-20T00:26:18.973Z,85.81
2018-02-20T00:28:46.538Z,85.76
2018-02-20T00:31:14.134Z,86.18
2018-02-20T00:33:41.672Z,86.00
2018-02-20T00:36:09.229Z,86.28
2018-02-20T00:38:36.798Z,86.44
2018-02-20T00:41:04.389Z,86.51
2018-02-20T00:43:31.957Z,86.85
2018-02-20T00:45:59.520Z,86.28
2018-02-20T00:48:27.125Z,86.36
2018-02-20T00:50:54.678Z,86.28
2018-02-20T00:53:22.265Z,86.72
2018-02-20T00:55:49.830Z,86.57
2018-02-20T00:58:17.390Z,86.29
2018-02-20T01:00:44.990Z,86.55
2018-02-20T01:03:12.586Z,86.51
2018-02-20T01:05:40.194Z,87.06
2018-02-20T01:08:07.749Z,86.75
2018-02-20T01:10:35.305Z,86.87
2018-02-20T01:13:02.874Z,86.66
2018-02-20T01:15:30.515Z,86.62
2018-02-20T01:17:58.087Z,86.92
2018-02-20T01:20:25.645Z,86.70
2018-02-20T01:22:53.248Z,86.69
2018-02-20T01:25:20.806Z,86.70
2018-02-20T01:27:48.403Z,86.47
2018-02-20T01:30:15.956Z,85.73
2018-02-20T01:32:43.510Z,86.43
2018-02-20T01:35:11.157Z,86.35
2018-02-20T01:37:38.723Z,86.14
2018-02-20T01:40:06.314Z,86.06
2018-02-20T01:42:33.874Z,85.95
2018-02-20T01:45:01.413Z,86.30
2018-02-20T01:47:28.996Z,85.96
2018-02-20T01:49:56.661Z,85.96
2018-02-20T01:52:24.230Z,85.60
2018-02-20T01:54:51.808Z,86.06
2018-02-20T01:57:19.426Z,85.98
2018-02-20T01:59:46.984Z,85.87
2018-02-20T02:02:14.568Z,85.73
2018-02-20T02:04:42.389Z,86.02
2018-02-20T02:07:09.942Z,86.07
2018-02-20T02:09:37.508Z,85.79
2018-02-20T02:12:05.090Z,86.27
2018-02-20T02:14:32.861Z,85.93
2018-02-20T02:17:00.422Z,85.94
2018-02-20T02:19:27.992Z,86.08
2018-02-20T02:21:55.890Z,86.08
2018-02-20T02:24:23.459Z,86.25
2018-02-20T02:26:51.040Z,85.91
2018-02-20T02:29:18.602Z,86.10
2018-02-20T02:31:46.240Z,86.38
2018-02-20T02:34:14.005Z,86.59
2018-02-20T02:36:41.723Z,86.99
2018-02-20T02:39:09.286Z,87.16
2018-02-20T02:41:36.845Z,86.88
2018-02-20T02:44:04.558Z,86.55
2018-02-20T02:46:32.120Z,86.87
2018-02-20T02:49:00.019Z,86.76
2018-02-20T02:51:27.577Z,86.80
2018-02-20T02:53:55.349Z,86.62
2018-02-20T02:56:23.066Z,86.26
2018-02-20T02:58:50.785Z,86.19
2018-02-20T03:01:18.603Z,86.43
2018-02-20T03:03:46.235Z,86.12
2018-02-20T03:06:13.855Z,86.04
2018-02-20T03:08:41.661Z,86.43
2018-02-20T03:11:09.222Z,86.46
2018-02-20T03:13:36.794Z,86.58
2018-02-20T03:16:04.354Z,86.29
2018-02-20T03:18:31.923Z,86.24
2018-02-20T03:20:59.478Z,86.24
2018-02-20T03:23:27.264Z,86.76
2018-02-20T03:25:54.871Z,86.21
2018-02-20T03:28:22.431Z,86.46
2018-02-20T03:30:50.195Z,86.47
2018-02-20T03:33:17.785Z,86.13
2018-02-20T03:35:45.446Z,86.33
2018-02-20T03:38:13.016Z,85.92
2018-02-20T03:40:40.649Z,85.94
2018-02-20T03:43:08.407Z,86.34
2018-02-20T03:45:35.962Z,86.21
2018-02-20T03:48:03.539Z,85.91
2018-02-20T03:50:31.101Z,85.92
2018-02-20T03:52:58.879Z,86.57
2018-02-20T03:55:26.597Z,85.79
2018-02-20T03:57:54.210Z,85.61
2018-02-20T04:00:21.906Z,85.40
2018-02-20T04:02:49.623Z,85.26
2018-02-20T04:05:17.342Z,85.01
2018-02-20T04:07:44.902Z,85.09
2018-02-20T04:10:12.474Z,84.78
2018-02-20T04:12:40.224Z,84.71
2018-02-20T04:15:07.831Z,84.69
2018-02-20T04:17:35.380Z,84.98
2018-02-20T04:20:02.946Z,84.90
2018-02-20T04:22:30.515Z,84.97
2018-02-20T04:24:58.082Z,84.82
2018-02-20T04:27:25.830Z,85.24
2018-02-20T04:29:53.402Z,84.47
2018-02-20T04:32:21.022Z,84.36
2018-02-20T04:34:48.589Z,84.47
2018-02-20T04:37:16.146Z,84.37
2018-02-20T04:39:43.714Z,84.45
2018-02-20T04:42:11.286Z,84.29
2018-02-20T04:44:39.021Z,84.93
2018-02-20T04:47:06.589Z,84.76
2018-02-20T04:49:34.201Z,84.58
2018-02-20T04:52:01.763Z,84.81
2018-02-20T04:54:29.318Z,84.67
2018-02-20T04:56:56.863Z,84.71
2018-02-20T04:59:24.423Z,84.66
2018-02-20T05:01:52.180Z,84.89
2018-02-20T05:04:19.748Z,84.89
2018-02-20T05:06:47.366Z,84.49
2018-02-20T05:09:14.932Z,84.80
2018-02-20T05:11:42.652Z,85.00
2018-02-20T05:14:10.464Z,84.17
2018-02-20T05:16:38.154Z,84.44
2018-02-20T05:19:05.803Z,84.59
2018-02-20T05:21:33.625Z,84.46
2018-02-20T05:24:01.199Z,84.46
2018-02-20T05:26:28.965Z,84.50
2018-02-20T05:28:56.545Z,84.38
2018-02-20T05:31:24.126Z,84.02
2018-02-20T05:33:51.691Z,83.90
2018-02-20T05:36:19.251Z,84.13
2018-02-20T05:38:46.945Z,84.01
2018-02-20T05:41:14.642Z,83.66
2018-02-20T05:43:42.451Z,83.53
2018-02-20T05:46:10.173Z,83.36
2018-02-20T05:48:37.731Z,83.59
2018-02-20T05:51:05.304Z,83.84
2018-02-20T05:53:32.870Z,84.08
2018-02-20T05:56:00.435Z,83.85
2018-02-20T05:58:28.010Z,84.00
2018-02-20T06:00:55.663Z,83.68
2018-02-20T06:03:23.229Z,83.88
2018-02-20T06:05:50.785Z,84.21
2018-02-20T06:08:18.354Z,84.27
2018-02-20T06:10:45.926Z,84.67
2018-02-20T06:13:13.700Z,83.76
2018-02-20T06:15:41.303Z,83.88
2018-02-20T06:18:08.873Z,83.57
2018-02-20T06:20:36.654Z,83.82
2018-02-20T06:23:04.373Z,83.91
2018-02-20T06:25:31.946Z,83.71
2018-02-20T06:27:59.708Z,83.98
2018-02-20T06:30:27.259Z,83.43
2018-02-20T06:32:54.822Z,83.80
2018-02-20T06:35:22.382Z,83.57
2018-02-20T06:37:49.979Z,83.33
2018-02-20T06:40:17.899Z,83.33
2018-02-20T06:42:45.507Z,83.23
2018-02-20T06:45:13.073Z,83.36
2018-02-20T06:47:40.642Z,83.36
2018-02-20T06:50:08.244Z,83.51
2018-02-20T06:52:35.802Z,83.36
2018-02-20T06:55:03.605Z,83.38
2018-02-20T06:57:31.324Z,82.67
2018-02-20T06:59:58.882Z,82.92
2018-02-20T07:02:26.458Z,82.74
2018-02-20T07:04:54.005Z,82.75
2018-02-20T07:07:21.794Z,82.81
2018-02-20T07:09:49.354Z,82.46
2018-02-20T07:12:16.976Z,82.79
2018-02-20T07:14:44.568Z,82.42
2018-02-20T07:17:12.126Z,82.78
2018-02-20T07:19:39.693Z,82.27
2018-02-20T07:22:07.254Z,82.17
2018-02-20T07:24:34.826Z,81.80
2018-02-20T07:27:02.386Z,81.94
2018-02-20T07:29:30.023Z,81.48
2018-02-20T07:31:57.741Z,80.72
2018-02-20T07:34:25.392Z,80.56
2018-02-20T07:36:52.966Z,80.64
2018-02-20T07:39:20.688Z,80.85
2018-02-20T07:41:48.444Z,81.62
2018-02-20T07:44:16.009Z,80.90
2018-02-20T07:46:43.634Z,80.95
2018-02-20T07:49:11.229Z,81.40
2018-02-20T07:51:38.799Z,80.86
2018-02-20T07:54:06.379Z,80.15
2018-02-20T07:56:34.151Z,80.00
2018-02-20T07:59:01.971Z,79.98
2018-02-20T08:01:29.785Z,80.05
2018-02-20T08:03:57.608Z,80.30
2018-02-20T08:06:25.170Z,80.15
2018-02-20T08:08:52.945Z,79.55
2018-02-20T08:11:20.765Z,79.36
2018-02-20T08:13:48.480Z,79.68
2018-02-20T08:16:16.106Z,78.75
2018-02-20T08:18:43.678Z,79.48
2018-02-20T08:21:11.328Z,79.16
2018-02-20T08:23:39.029Z,78.43
2018-02-20T08:26:06.712Z,79.04
2018-02-20T08:28:34.281Z,78.93
2018-02-20T08:31:01.862Z,79.52
2018-02-20T08:33:29.693Z,78.92
2018-02-20T08:35:57.250Z,79.40
2018-02-20T08:38:24.810Z,78.71
2018-02-20T08:40:52.384Z,78.93
2018-02-20T08:43:20.200Z,78.50
2018-02-20T08:45:47.999Z,79.07
2018-02-20T08:48:15.690Z,78.30
2018-02-20T08:50:43.242Z,78.01
2018-02-20T08:53:10.969Z,78.07
2018-02-20T08:55:38.687Z,77.88
2018-02-20T08:58:06.306Z,78.48
2018-02-20T09:00:34.123Z,78.61
2018-02-20T09:03:01.687Z,78.44
2018-02-20T09:05:29.464Z,78.21
2018-02-20T09:07:57.026Z,78.50
2018-02-20T09:10:24.575Z,78.44
2018-02-20T09:12:52.277Z,78.32
2018-02-20T09:15:19.939Z,78.35
2018-02-20T09:17:47.522Z,78.58
2018-02-20T09:20:15.074Z,77.59
2018-02-20T09:22:42.784Z,76.92
2018-02-20T09:25:10.503Z,77.59
2018-02-20T09:27:38.070Z,77.44
2018-02-20T09:30:05.838Z,76.98
2018-02-20T09:32:33.464Z,76.46
2018-02-20T09:35:01.025Z,76.60
2018-02-20T09:37:28.589Z,75.74
2018-02-20T09:39:56.216Z,76.21
2018-02-20T09:42:23.819Z,76.43
2018-02-20T09:44:51.386Z,76.36
2018-02-20T09:47:18.955Z,76.81
2018-02-20T09:49:46.570Z,75.48
2018-02-20T09:52:14.111Z,75.67
2018-02-20T09:54:41.681Z,75.95
2018-02-20T09:57:09.435Z,75.31
2018-02-20T09:59:36.990Z,76.41
2018-02-20T10:02:04.564Z,76.19
2018-02-20T10:04:32.200Z,76.31
2018-02-20T10:06:59.850Z,76.22
2018-02-20T10:09:27.414Z,76.36
2018-02-20T10:11:54.980Z,75.73
2018-02-20T10:14:22.556Z,75.63
2018-02-20T10:16:50.134Z,74.32
2018-02-20T10:19:17.895Z,74.81
2018-02-20T10:21:45.450Z,75.52
2018-02-20T10:24:13.078Z,74.21
2018-02-20T10:26:40.636Z,74.71
2018-02-20T10:29:08.366Z,74.45
2018-02-20T10:31:36.112Z,74.92
2018-02-20T10:34:03.793Z,74.62
2018-02-20T10:36:31.509Z,74.34
2018-02-20T10:38:59.238Z,74.53
2018-02-20T10:41:26.891Z,74.59
2018-02-20T10:43:54.494Z,74.83
2018-02-20T10:46:22.055Z,74.52
2018-02-20T10:48:49.626Z,74.78
2018-02-20T10:51:17.226Z,74.13
2018-02-20T10:53:44.807Z,73.90
2018-02-20T10:56:12.357Z,73.73
2018-02-20T10:58:39.978Z,73.28
2018-02-20T11:01:07.666Z,73.52
2018-02-20T11:03:35.227Z,73.36
2018-02-20T11:06:02.829Z,74.20
2018-02-20T11:08:30.378Z,73.95
2018-02-20T11:10:58.171Z,74.05
2018-02-20T11:13:25.703Z,73.95
2018-02-20T11:15:53.325Z,73.34
2018-02-20T11:18:20.874Z,73.60
2018-02-20T11:20:48.742Z,74.52
2018-02-20T11:23:16.318Z,74.62
2018-02-20T11:25:44.089Z,74.64
2018-02-20T11:28:11.649Z,74.60
2018-02-20T11:30:39.208Z,74.37
2018-02-20T11:33:06.825Z,75.22
2018-02-20T11:35:34.549Z,75.15
2018-02-20T11:38:02.102Z,74.67
2018-02-20T11:40:29.815Z,74.44
2018-02-20T11:42:57.396Z,75.66
2018-02-20T11:45:24.968Z,74.94
2018-02-20T11:47:52.639Z,75.60
2018-02-20T11:50:20.238Z,76.59
2018-02-20T11:52:47.988Z,76.63
2018-02-20T11:55:15.794Z,77.10
2018-02-20T11:57:43.354Z,77.12
2018-02-20T12:00:11.130Z,77.60
2018-02-20T12:02:38.948Z,78.35
2018-02-20T12:05:06.634Z,77.22
2018-02-20T12:07:34.486Z,78.09
2018-02-20T12:10:02.191Z,78.63
2018-02-20T12:12:29.753Z,79.02
2018-02-20T12:14:57.358Z,78.78
2018-02-20T12:17:25.162Z,78.48
2018-02-20T12:19:52.975Z,78.76
2018-02-20T12:22:20.675Z,79.23
2018-02-20T12:24:48.290Z,78.21
2018-02-20T12:27:15.872Z,79.02
2018-02-20T12:29:43.648Z,77.97
2018-02-20T12:32:11.210Z,78.05
2018-02-20T12:34:38.984Z,77.96
2018-02-20T12:37:06.595Z,77.88
2018-02-20T12:39:34.146Z,77.06
2018-02-20T12:42:01.765Z,77.74
2018-02-20T12:44:29.347Z,77.54
2018-02-20T12:46:56.958Z,77.72
2018-02-20T12:49:24.518Z,78.11
2018-02-20T12:51:52.309Z,77.71
2018-02-20T12:54:19.875Z,77.81
2018-02-20T12:56:47.439Z,77.90
2018-02-20T12:59:15.053Z,77.53
2018-02-20T13:01:42.650Z,77.74
2018-02-20T13:04:10.372Z,76.63
2018-02-20T13:06:38.089Z,76.67
2018-02-20T13:09:05.666Z,77.15
2018-02-20T13:11:33.456Z,76.81
2018-02-20T13:14:01.056Z,77.48
2018-02-20T13:16:28.890Z,76.37
2018-02-20T13:18:56.541Z,76.42
2018-02-20T13:21:24.326Z,76.85
2018-02-20T13:23:51.879Z,76.49
2018-02-20T13:26:19.456Z,75.65
2018-02-20T13:28:47.071Z,76.26
2018-02-20T13:31:14.669Z,76.55
2018-02-20T13:33:42.246Z,76.56
2018-02-20T13:36:09.810Z,76.97
2018-02-20T13:38:37.370Z,78.20
2018-02-20T13:41:05.001Z,77.99
2018-02-20T13:43:32.578Z,78.01
2018-02-20T13:46:00.272Z,77.79
2018-02-20T13:48:27.989Z,77.78
2018-02-20T13:50:55.604Z,78.14
2018-02-20T13:53:23.420Z,77.16
2018-02-20T13:55:50.968Z,78.10
2018-02-20T13:58:18.534Z,78.46
2018-02-20T14:00:46.098Z,78.11
2018-02-20T14:03:13.659Z,77.87
2018-02-20T14:05:41.275Z,77.95
2018-02-20T14:08:09.066Z,78.08
2018-02-20T14:10:36.611Z,78.21
2018-02-20T14:13:04.297Z,78.27
2018-02-20T14:15:31.910Z,77.82
2018-02-20T14:17:59.739Z,78.11
2018-02-20T14:20:27.345Z,78.34
2018-02-20T14:22:54.918Z,77.83
2018-02-20T14:25:22.481Z,78.34
2018-02-20T14:27:50.052Z,78.55
2018-02-20T14:30:17.927Z,79.29
2018-02-20T14:32:45.746Z,78.53
2018-02-20T14:35:13.302Z,79.17
2018-02-20T14:37:41.083Z,78.80
2018-02-20T14:40:08.642Z,79.11
2018-02-20T14:42:36.265Z,78.75
2018-02-20T14:45:03.884Z,79.46
2018-02-20T14:47:31.626Z,78.93
2018-02-20T14:49:59.343Z,79.17
2018-02-20T14:52:27.058Z,78.56
2018-02-20T14:54:54.742Z,79.02
2018-02-20T14:57:22.533Z,78.51
2018-02-20T14:59:50.345Z,78.33
2018-02-20T15:02:18.870Z,78.44
2018-02-20T15:04:46.467Z,78.53
2018-02-20T15:07:14.092Z,78.16
2018-02-20T15:09:41.797Z,78.53
2018-02-20T15:12:09.518Z,78.38
2018-02-20T15:14:37.159Z,77.62
2018-02-20T15:17:04.974Z,78.11
2018-02-20T15:19:32.586Z,78.68
2018-02-20T15:22:00.410Z,78.00
2018-02-20T15:24:28.133Z,77.91
2018-02-20T15:26:55.719Z,78.47
2018-02-20T15:29:23.274Z,78.56
2018-02-20T15:31:50.894Z,78.27
2018-02-20T15:34:18.449Z,78.40
2018-02-20T15:36:46.008Z,78.59
2018-02-20T15:39:13.615Z,78.90
2018-02-20T15:41:41.170Z,79.12
2018-02-20T15:44:08.972Z,79.31
2018-02-20T15:46:36.542Z,79.25
2018-02-20T15:49:04.284Z,79.34
2018-02-20T15:51:31.860Z,78.93
2018-02-20T15:53:59.428Z,79.52
2018-02-20T15:56:27.162Z,79.55
2018-02-20T15:58:54.733Z,79.76
2018-02-20T16:01:22.601Z,79.90
2018-02-20T16:03:50.316Z,79.77
2018-02-20T16:06:17.874Z,80.07
2018-02-20T16:08:45.441Z,79.70
2018-02-20T16:11:13.177Z,79.97
2018-02-20T16:13:40.783Z,79.77
2018-02-20T16:16:18.434Z,79.88
2018-02-20T16:18:46.006Z,79.64
2018-02-20T16:21:13.567Z,80.13
2018-02-20T16:23:41.395Z,80.08
2018-02-20T16:26:08.976Z,80.14
2018-02-20T16:28:36.539Z,79.86
2018-02-20T16:31:04.164Z,79.57
2018-02-20T16:33:31.946Z,79.65
2018-02-20T16:35:59.661Z,79.17
2018-02-20T16:38:27.377Z,79.26
2018-02-20T16:40:55.093Z,79.55
2018-02-20T16:43:22.715Z,79.74
2018-02-20T16:45:50.279Z,79.98
2018-02-20T16:48:17.987Z,79.84
2018-02-20T16:50:45.794Z,79.71
2018-02-20T16:53:13.354Z,79.76
2018-02-20T16:55:40.975Z,79.94
2018-02-20T16:58:08.544Z,80.27
2018-02-20T17:00:36.365Z,80.16
2018-02-20T17:03:04.039Z,80.04
2018-02-20T17:05:31.780Z,80.42
2018-02-20T17:07:59.394Z,80.31
2018-02-20T17:10:26.954Z,79.97
2018-02-20T17:12:54.522Z,80.42
2018-02-20T17:15:22.245Z,80.17
2018-02-20T17:17:49.961Z,80.10
2018-02-20T17:20:17.686Z,80.19
2018-02-20T17:22:45.257Z,80.20
2018-02-20T17:25:12.818Z,79.82
2018-02-20T17:27:40.454Z,79.94
2018-02-20T17:30:08.029Z,79.71
2018-02-20T17:32:35.646Z,79.74
2018-02-20T17:35:03.374Z,79.96
2018-02-20T17:37:30.954Z,79.89
2018-02-20T17:39:58.517Z,79.75
2018-02-20T17:42:26.208Z,79.44
2018-02-20T17:44:53.836Z,79.76
2018-02-20T17:47:21.405Z,79.97
2018-02-20T17:49:49.096Z,79.78
2018-02-20T17:52:16.812Z,80.38
2018-02-20T17:54:44.378Z,80.03
2018-02-20T17:57:12.071Z,80.20
2018-02-20T17:59:39.686Z,80.05
2018-02-20T18:02:07.248Z,80.04
2018-02-20T18:04:34.821Z,80.13
2018-02-20T18:07:02.463Z,80.03
2018-02-20T18:09:30.074Z,80.39
2018-02-20T18:11:57.634Z,80.34
2018-02-20T18:14:25.201Z,80.36
2018-02-20T18:16:52.776Z,80.34
2018-02-20T18:19:20.333Z,80.50
2018-02-20T18:21:48.171Z,80.83
2018-02-20T18:24:15.731Z,80.99
2018-02-20T18:26:43.382Z,80.75
2018-02-20T18:29:10.958Z,80.90
2018-02-20T18:31:38.507Z,80.38
2018-02-20T18:34:06.164Z,80.01
2018-02-20T18:36:33.861Z,80.18
2018-02-20T18:39:01.415Z,80.28
2018-02-20T18:41:29.160Z,80.49
2018-02-20T18:43:56.741Z,80.28
2018-02-20T18:46:24.426Z,80.28
2018-02-20T18:48:52.046Z,80.51
2018-02-20T18:51:19.872Z,80.99
2018-02-20T18:53:47.490Z,80.92
2018-02-20T18:56:15.063Z,80.95
2018-02-20T18:58:42.677Z,80.93
2018-02-20T19:01:10.337Z,81.36
2018-02-20T19:03:37.904Z,81.59
2018-02-20T19:06:05.477Z,81.61
2018-02-20T19:08:33.196Z,81.88
2018-02-20T19:11:00.808Z,81.77
2018-02-20T19:13:28.369Z,82.15
2018-02-20T19:15:56.050Z,82.24
2018-02-20T19:18:23.636Z,82.28
2018-02-20T19:20:51.212Z,82.38
2018-02-20T19:23:18.829Z,82.16
2018-02-20T19:25:46.410Z,82.11
2018-02-20T19:28:14.138Z,82.11
2018-02-20T19:30:41.735Z,82.17
2018-02-20T19:33:09.289Z,81.70
2018-02-20T19:35:38.000Z,81.63
2018-02-20T19:38:05.817Z,82.02
2018-02-20T19:40:33.634Z,82.03
2018-02-20T19:43:01.202Z,81.82
2018-02-20T19:45:28.794Z,82.05
2018-02-20T19:47:56.420Z,81.76
2018-02-20T19:50:24.321Z,81.47
2018-02-20T19:52:51.886Z,81.83
2018-02-20T19:55:19.470Z,81.57
2018-02-20T19:57:47.260Z,81.88
2018-02-20T20:00:14.834Z,82.13
2018-02-20T20:02:42.596Z,82.47
2018-02-20T20:05:10.171Z,82.06
2018-02-20T20:07:37.761Z,81.68
2018-02-20T20:10:05.440Z,82.07
2018-02-20T20:12:33.010Z,81.64
2018-02-20T20:15:00.599Z,81.93
2018-02-20T20:17:28.151Z,81.95
2018-02-20T20:19:55.809Z,82.42
2018-02-20T20:22:23.388Z,82.45
2018-02-20T20:24:51.157Z,82.81
2018-02-20T20:27:18.734Z,82.47
2018-02-20T20:29:46.303Z,82.44
2018-02-20T20:32:13.900Z,82.49
2018-02-20T20:34:41.476Z,82.41
2018-02-20T20:37:09.100Z,82.61
2018-02-20T20:39:36.864Z,82.31
2018-02-20T20:42:04.437Z,82.35
2018-02-20T20:44:32.024Z,82.09
2018-02-20T20:46:59.818Z,82.28
2018-02-20T20:49:27.381Z,82.12
2018-02-20T20:51:55.120Z,82.05
2018-02-20T20:54:22.674Z,82.13
2018-02-20T20:56:50.490Z,82.13
2018-02-20T20:59:18.099Z,82.61
2018-02-20T21:01:45.670Z,82.76
2018-02-20T21:04:13.253Z,82.63
2018-02-20T21:06:40.818Z,82.32
2018-02-20T21:09:08.406Z,82.39
2018-02-20T21:11:36.196Z,82.38
2018-02-20T21:14:03.783Z,81.91
2018-02-20T21:16:31.440Z,81.82
2018-02-20T21:18:59.004Z,82.04
2018-02-20T21:21:26.581Z,81.75
2018-02-20T21:23:54.163Z,81.53
2018-02-20T21:26:21.972Z,81.17
2018-02-20T21:28:49.530Z,81.52
2018-02-20T21:31:17.343Z,81.18
2018-02-20T21:33:44.991Z,81.04
2018-02-20T21:36:12.553Z,81.11
2018-02-20T21:38:40.129Z,80.54
2018-02-20T21:41:07.726Z,80.63
2018-02-20T21:43:35.286Z,81.11
2018-02-20T21:46:02.854Z,81.06
2018-02-20T21:48:30.409Z,80.81
2018-02-20T21:50:57.974Z,80.85
2018-02-20T21:53:25.535Z,80.84
2018-02-20T21:55:53.079Z,80.64
2018-02-20T21:58:20.642Z,80.74
2018-02-20T22:00:48.266Z,80.62
2018-02-20T22:03:15.958Z,80.76
2018-02-20T22:05:43.525Z,80.76
2018-02-20T22:08:11.193Z,80.81
2018-02-20T22:10:38.925Z,80.59
2018-02-20T22:13:06.459Z,80.20
2018-02-20T22:15:34.046Z,79.85
2018-02-20T22:18:01.663Z,80.24
2018-02-20T22:20:29.218Z,79.57
2018-02-20T22:22:56.783Z,80.05
2018-02-20T22:25:24.378Z,79.53
2018-02-20T22:27:52.150Z,79.35
2018-02-20T22:30:19.702Z,79.38
2018-02-20T22:32:47.275Z,79.39
2018-02-20T22:35:14.838Z,79.19
2018-02-20T22:37:42.390Z,79.19
2018-02-20T22:40:10.016Z,79.15
2018-02-20T22:42:37.605Z,79.23
2018-02-20T22:45:05.158Z,78.91
2018-02-20T22:47:32.726Z,79.20
2018-02-20T22:50:00.415Z,79.36
2018-02-20T22:52:27.981Z,78.86
2018-02-20T22:54:55.665Z,78.75
2018-02-20T22:57:23.214Z,78.75
2018-02-20T22:59:50.783Z,79.23
2018-02-20T23:02:18.370Z,79.05
2018-02-20T23:04:46.198Z,79.65
2018-02-20T23:07:13.770Z,79.34
2018-02-20T23:09:41.332Z,78.93
2018-02-20T23:12:08.962Z,78.90
2018-02-20T23:14:36.566Z,78.02
2018-02-20T23:17:04.131Z,77.97
2018-02-20T23:19:31.710Z,77.92
2018-02-20T23:21:59.282Z,78.21
2018-02-20T23:24:26.850Z,78.20
2018-02-20T23:26:54.405Z,77.80
2018-02-20T23:29:21.969Z,78.03
2018-02-20T23:31:49.711Z,77.46
2018-02-20T23:34:17.274Z,78.10
2018-02-20T23:36:44.842Z,78.15
2018-02-20T23:39:12.397Z,78.62
2018-02-20T23:41:40.022Z,78.03
2018-02-20T23:44:07.801Z,78.51
2018-02-20T23:46:35.377Z,78.37
2018-02-20T23:49:02.954Z,78.47
2018-02-20T23:51:35.341Z,77.99
2018-02-20T23:54:03.091Z,78.28
2018-02-20T23:56:30.811Z,78.30
2018-02-20T23:58:58.417Z,78.16
